• Join FlightAware (Why Join?)
  • Login
  • US Flag 
06:15PM EDT


 

Airport Tracker/Info


-or-


 

Live Flight TrackerFlight Track Log ✈ N717AN ✈ 23-Apr-2013 ✈ KJFK - SBGR / GRU

Flight Track Log - Related Links

Times and Time Zones

All times are in EDT time to prevent confusion due to time zone crossing. See the N717AN flight status page for this flight to view local times or setup timezone preferences in your user account.

Time Position Orientation Groundspeed Altitude Reporting Facility
EDT Latitude Longitude Course Direction KTS MPH feet Rate Location/Type
11:00PM 40.6540 -73.7610 31° Northeast 177 204 700  Level FlightAware
11:00PM 40.6610 -73.7470 57° Northeast 181 208 1,400 2,400 Climbing FlightAware
11:00PM 40.6620 -73.7360 83° East 189 217 1,700 1,500 Climbing FlightAware
11:01PM 40.6580 -73.6990 98° East 225 259 2,400 1,200 Climbing FlightAware
11:01PM 40.6480 -73.6830 129° Southeast 253 291 2,600 1,380 Climbing FlightAware
11:01PM 40.6310 -73.6720 154° Southeast 266 306 3,100 2,220 Climbing FlightAware
11:02PM 40.6000 -73.6630 168° South 277 319 4,100 2,400 Climbing FlightAware
11:02PM 40.5620 -73.6520 168° South 285 328 5,300 2,640 Climbing FlightAware
11:03PM 40.5253 -73.6413 168° South 288 331 6,600 2,700 Climbing FlightAware ADS-B
11:03PM 40.5146 -73.6361 160° South 291 335 6,900 1,980 Climbing FlightAware ADS-B
11:03PM 40.5067 -73.6314 156° South 293 337 7,100 2,100 Climbing FlightAware ADS-B
11:03PM 40.4906 -73.6200 152° Southeast 297 342 7,600 2,100 Climbing FlightAware ADS-B
11:04PM 40.4728 -73.6067 150° Southeast 302 348 8,100 2,340 Climbing FlightAware ADS-B
11:04PM 40.4556 -73.5940 151° Southeast 304 350 8,700 2,280 Climbing FlightAware ADS-B
11:04PM 40.4354 -73.5787 150° Southeast 308 354 9,300 2,040 Climbing FlightAware ADS-B
11:04PM 40.4165 -73.5644 150° Southeast 314 361 9,800 1,260 Climbing FlightAware ADS-B
11:05PM 40.3946 -73.5477 150° Southeast 335 386 10,000 720 Climbing FlightAware ADS-B
11:05PM 40.3507 -73.5145 150° Southeast 367 422 10,400 1,260 Climbing FlightAware ADS-B
11:06PM 40.3034 -73.4784 150° Southeast 388 447 11,300 1,800 Climbing FlightAware ADS-B
11:06PM 40.2535 -73.4403 150° Southeast 409 471 12,300 2,400 Climbing FlightAware ADS-B
11:07PM 40.2025 -73.4024 150° Southeast 412 474 13,800 2,820 Climbing FlightAware ADS-B
11:07PM 40.1489 -73.3623 150° Southeast 419 482 15,300 2,580 Climbing FlightAware ADS-B
11:08PM 40.0940 -73.3212 150° Southeast 425 489 16,600 2,400 Climbing FlightAware ADS-B
11:08PM 40.0386 -73.2798 150° Southeast 430 495 17,900 2,220 Climbing FlightAware ADS-B
11:09PM 39.9777 -73.2347 150° Southeast 442 509 19,100 2,280 Climbing FlightAware ADS-B
11:09PM 39.9223 -73.1938 150° Southeast 443 510 20,400 2,400 Climbing FlightAware ADS-B
11:10PM 39.8629 -73.1498 150° Southeast 446 513 21,700 1,980 Climbing FlightAware ADS-B
11:10PM 39.8069 -73.1085 150° Southeast 453 521 22,600 1,260 Climbing FlightAware ADS-B
11:11PM 39.7513 -73.0673 150° Southeast 463 533 23,000 660 Climbing FlightAware ADS-B
11:12PM 39.6440 -72.9879 150° Southeast 463 533 23,600 1,140 Climbing FlightAware ADS-B
11:13PM 39.5681 -72.9320 150° Southeast 468 539 24,900 1,860 Climbing FlightAware ADS-B
11:13PM 39.5060 -72.8863 150° Southeast 468 539 25,900 1,380 Climbing FlightAware ADS-B
11:14PM 39.3850 -72.7980 151° Southeast 480 552 27,200 1,260 Climbing FlightAware
11:14PM 39.3579 -72.7780 150° Southeast 473 544 27,500 1,560 Climbing FlightAware ADS-B
11:15PM 39.2873 -72.7264 150° Southeast 497 572 28,400 1,380 Climbing FlightAware ADS-B
11:15PM 39.2238 -72.6802 151° Southeast 501 577 29,100 1,620 Climbing FlightAware ADS-B
11:16PM 39.1531 -72.6290 151° Southeast 503 579 30,200 1,260 Climbing FlightAware ADS-B
11:17PM 39.0489 -72.5534 151° Southeast 496 571 31,000 480 Climbing FlightAware ADS-B
11:18PM 38.9549 -72.4855 151° Southeast 498 573 31,000  Level FlightAware ADS-B
11:19PM 38.8581 -72.4159 151° Southeast 498 573 31,000  Level FlightAware ADS-B
11:19PM 38.7956 -72.3711 151° Southeast 494 568 31,000  Level FlightAware ADS-B
11:20PM 38.7343 -72.3272 151° Southeast 493 567 31,000  Level FlightAware ADS-B
11:20PM 38.6631 -72.2763 151° Southeast 490 564 31,000  Level FlightAware ADS-B
11:21PM 38.5996 -72.2310 151° Southeast 489 563 31,000  Level FlightAware ADS-B
11:21PM 38.5372 -72.1866 151° Southeast 489 563 31,000  Level FlightAware ADS-B
11:22PM 38.4710 -72.1396 151° Southeast 487 560 31,000  Level FlightAware ADS-B
11:23PM 38.3675 -72.0663 151° Southeast 484 557 31,000 -60 Level FlightAware ADS-B
11:24PM 38.2461 -71.9811 151° Southeast 488 562 30,900 420 Descending New York Center
11:25PM 38.1303 -71.9025 152° Southeast 483 556 32,000 480 Climbing New York Center
11:26PM 38.0183 -71.8242 151° Southeast 469 540 31,900  Descending New York Center
11:27PM 37.9064 -71.7436 150° Southeast 464 534 32,000  Climbing New York Center
11:28PM 37.7964 -71.6658 151° Southeast 452 520 31,900 -60 Descending New York Center
11:29PM 37.6844 -71.5911 152° Southeast 452 520 31,900  Level New York Center
11:30PM 37.5744 -71.5058 148° Southeast 457 526 31,900  Level New York Center
11:31PM 37.4622 -71.4392 155° Southeast 457 526 32,000  Climbing New York Center
11:32PM 37.3728 -71.3939 158° South 449 517 31,900  Descending New York Center
11:33PM 37.2397 -71.3119 154° Southeast 444 511 32,000  Climbing New York Center
11:34PM 37.4833 -71.4500 155° Southeast 443 510 32,000  Level New York Oceanic (ODAPS)
11:35PM 37.0503 -71.1933 155° Southeast 437 503 32,000  Level New York Center
11:36PM 36.9233 -71.1197 155° Southeast 437 503 32,000  Level New York Center
11:38PM 36.7179 -70.9979 155° Southeast  Level FlightAware Approximate
11:41PM 36.3167 -70.7667 155° Southeast 432 497 32,000  Level New York Oceanic (ODAPS)
11:45PM 35.8870 -70.5123 155° Southeast  Level FlightAware Approximate
11:46PM 35.7681 -70.4438 155° Southeast  Level FlightAware Approximate
11:47PM 35.6412 -70.4044 168° South  Level FlightAware Approximate
11:47PM 35.7667 -70.4500 168° South 415 478 32,000  Level New York Oceanic (ODAPS)
11:48PM 35.6481 -70.4186 168° South 432 497 32,000  Level FlightAware Transoceanic
11:49PM 35.5296 -70.3874 168° South 432 497 32,000  Level FlightAware Transoceanic
11:50PM 35.4110 -70.3562 168° South 432 497 32,000  Level FlightAware Transoceanic
11:51PM 35.2924 -70.3251 168° South 432 497 32,000  Level FlightAware Transoceanic
11:52PM 35.1738 -70.2941 168° South 432 497 32,000  Level FlightAware Transoceanic
11:53PM 35.0722 -70.2676 168° South 415 478 32,000  Level FlightAware Transoceanic
11:54PM 34.9564 -70.2375 168° South 415 478 32,000  Level FlightAware Transoceanic
11:54PM 35.0333 -70.2500 168° South 421 484 32,000  Level New York Oceanic (ODAPS)
11:54PM 34.9500 -70.2333 168° South 422 486 32,000  Level New York Oceanic (ODAPS)
11:55PM 34.8406 -70.2074 168° South 415 478 32,000  Level FlightAware Transoceanic
11:56PM 34.7248 -70.1775 168° South 415 478 32,000  Level FlightAware Transoceanic
11:57PM 34.6090 -70.1477 168° South 415 478 32,000  Level FlightAware Transoceanic
11:58PM 34.4932 -70.1179 168° South 415 478 32,000  Level FlightAware Transoceanic
11:59PM 34.3774 -70.0882 168° South 415 478 32,000  Level FlightAware Transoceanic
12:00AM 34.2563 -70.0552 168° South 422 486 32,000  Level FlightAware Transoceanic
12:01AM 34.1407 -70.0258 168° South 422 486 32,000  Level FlightAware Transoceanic
12:02AM 34.0250 -69.9965 168° South 422 486 32,000  Level FlightAware Transoceanic
12:03AM 33.9094 -69.9673 168° South 422 486 32,000  Level FlightAware Transoceanic
12:04AM 33.7937 -69.9381 168° South 422 486 32,000  Level FlightAware Transoceanic
12:05AM 33.6780 -69.9090 168° South 422 486 32,000  Level FlightAware Transoceanic
12:06AM 33.5623 -69.8800 168° South 422 486 32,000  Level FlightAware Transoceanic
12:07AM 33.4467 -69.8511 168° South 422 486 32,000  Level FlightAware Transoceanic
12:08AM 33.3310 -69.8223 168° South 422 486 32,000  Level FlightAware Transoceanic
12:09AM 33.2153 -69.7935 168° South 422 486 32,000  Level FlightAware Transoceanic
12:10AM 33.0996 -69.7648 168° South 422 486 32,000 -660 Level FlightAware Transoceanic
12:10AM 33.3000 -69.8167 168° South 426 490 31,000  Descending New York Oceanic (ODAPS)
12:11AM 32.9838 -69.7362 168° South 422 486 32,000 660 Climbing FlightAware Transoceanic
12:12AM 32.8681 -69.7076 168° South 422 486 32,000  Level FlightAware Transoceanic
12:13AM 32.7524 -69.6792 168° South 422 486 32,000  Level FlightAware Transoceanic
12:14AM 32.6367 -69.6508 168° South 422 486 32,000  Level FlightAware Transoceanic
12:15AM 32.5210 -69.6224 168° South 422 486 32,000 -540 Level FlightAware Transoceanic
12:16AM 32.6146 -69.6468 168° South 426 490 31,000 -540 Descending FlightAware Transoceanic
12:17AM 32.5003 -69.6188 168° South 426 490 31,000  Level FlightAware Transoceanic
12:18AM 32.3860 -69.5908 168° South 426 490 31,000  Level FlightAware Transoceanic
12:18AM 32.4333 -69.6000 168° South 427 491 31,000  Level New York Oceanic (ODAPS)
12:19AM 32.2718 -69.5629 168° South 426 490 31,000  Level FlightAware Transoceanic
12:20AM 32.1575 -69.5351 168° South 426 490 31,000  Level FlightAware Transoceanic
12:21AM 32.0432 -69.5073 168° South 426 490 31,000  Level FlightAware Transoceanic
12:22AM 31.9289 -69.4796 168° South 426 490 31,000  Level FlightAware Transoceanic
12:23AM 31.8146 -69.4520 168° South 426 490 31,000  Level FlightAware Transoceanic
12:23AM 31.8833 -69.4667 168° South 447 514 31,000  Level New York Oceanic (ODAPS)
12:24AM 31.7763 -69.4414 168° South 427 491 31,000  Level FlightAware Transoceanic
12:25AM 31.6668 -69.4152 168° South 427 491 31,000  Level FlightAware Transoceanic
12:26AM 31.5573 -69.3890 169° South 427 491 31,000  Level FlightAware Transoceanic
12:27AM 31.4477 -69.3629 169° South 427 491 31,000  Level FlightAware Transoceanic
12:28AM 31.3382 -69.3369 169° South 427 491 31,000  Level FlightAware Transoceanic
12:29AM 31.2287 -69.3109 169° South 427 491 31,000  Level FlightAware Transoceanic
12:30AM 31.1185 -69.2848 169° South 447 514 31,000  Level FlightAware Transoceanic
12:31AM 31.0093 -69.2590 169° South 447 514 31,000  Level FlightAware Transoceanic
12:32AM 30.9000 -69.2333 168° South 447 514 31,000  Level FlightAware Transoceanic
12:32AM 30.9000 -69.2333 168° South 439 505 31,000  Level New York Oceanic (ODAPS)
12:33AM 30.7713 -69.2026 168° South 447 514 31,000  Level FlightAware Transoceanic
12:34AM 30.6425 -69.1720 168° South 447 514 31,000  Level FlightAware Transoceanic
12:35AM 30.5138 -69.1415 168° South 447 514 31,000  Level FlightAware Transoceanic
12:36AM 30.3851 -69.1111 168° South 447 514 31,000  Level FlightAware Transoceanic
12:37AM 30.2563 -69.0807 169° South 447 514 31,000  Level FlightAware Transoceanic
12:37AM 30.2833 -69.0833 169° South 438 504 31,000  Level New York Oceanic (ODAPS)
12:38AM 30.1381 -69.0529 169° South 439 505 31,000  Level FlightAware Transoceanic
12:39AM 30.0112 -69.0231 169° South 439 505 31,000  Level FlightAware Transoceanic
12:40AM 29.8841 -68.9934 169° South 439 505 31,000  Level FlightAware Transoceanic
12:41AM 29.7571 -68.9637 169° South 439 505 31,000  Level FlightAware Transoceanic
12:42AM 29.6301 -68.9342 169° South 439 505 31,000  Level FlightAware Transoceanic
12:43AM 29.5197 -68.9051 169° South 438 504 31,000  Level FlightAware Transoceanic
12:44AM 29.3924 -68.8757 169° South 438 504 31,000  Level FlightAware Transoceanic
12:45AM 29.2651 -68.8463 169° South 438 504 31,000  Level FlightAware Transoceanic
12:46AM 29.1378 -68.8170 169° South 438 504 31,000  Level FlightAware Transoceanic
12:47AM 29.0105 -68.7878 169° South 438 504 31,000  Level FlightAware Transoceanic
12:48AM 28.8831 -68.7587 169° South 438 504 31,000  Level FlightAware Transoceanic
12:49AM 28.7558 -68.7296 169° South 438 504 31,000  Level FlightAware Transoceanic
12:49AM 28.8167 -68.7333 169° South 453 521 31,000  Level New York Oceanic (ODAPS)
12:50AM 28.6285 -68.7006 169° South 438 504 31,000  Level FlightAware Transoceanic
12:51AM 28.5011 -68.6717 169° South 438 504 31,000  Level FlightAware Transoceanic
12:51AM 28.5833 -68.6833 169° South 454 522 31,000  Level New York Oceanic (ODAPS)
12:52AM 28.3738 -68.6428 169° South 438 504 31,000  Level FlightAware Transoceanic
12:53AM 28.2464 -68.6140 169° South 438 504 31,000  Level FlightAware Transoceanic
12:53AM 28.2500 -68.6167 169° South 474 545 31,000  Level New York Oceanic (ODAPS)
12:54AM 28.1190 -68.5853 169° South 438 504 31,000  Level FlightAware Transoceanic
12:55AM 28.0460 -68.5598 169° South 453 521 31,000  Level FlightAware Transoceanic
12:56AM 27.9176 -68.5312 169° South 453 521 31,000  Level FlightAware Transoceanic
12:56AM 27.9333 -68.5333 169° South 460 529 31,000  Level New York Oceanic (ODAPS)
12:57AM 27.8100 -68.5097 169° South 454 522 31,000  Level FlightAware Transoceanic
12:58AM 27.6811 -68.4810 169° South 454 522 31,000  Level FlightAware Transoceanic
12:59AM 27.5522 -68.4523 169° South 454 522 31,000  Level FlightAware Transoceanic
01:00AM 27.4703 -68.4417 169° South 474 545 31,000  Level FlightAware Transoceanic
01:01AM 27.3404 -68.4127 169° South 474 545 31,000  Level FlightAware Transoceanic
01:02AM 27.1605 -68.3624 169° South 460 529 31,000  Level FlightAware Transoceanic
01:03AM 27.0317 -68.3341 169° South 460 529 31,000  Level FlightAware Transoceanic
01:04AM 26.9029 -68.3059 169° South 460 529 31,000  Level FlightAware Transoceanic
01:05AM 26.7740 -68.2778 169° South 460 529 31,000  Level FlightAware Transoceanic
01:05AM 26.9167 -68.3167 169° South 465 535 31,000  Level New York Oceanic (ODAPS)
01:06AM 26.6452 -68.2498 169° South 460 529 31,000  Level FlightAware Transoceanic
01:07AM 26.5164 -68.2218 169° South 460 529 31,000  Level FlightAware Transoceanic
01:08AM 26.3875 -68.1938 169° South 460 529 31,000  Level FlightAware Transoceanic
01:09AM 26.2587 -68.1659 169° South 460 529 31,000  Level FlightAware Transoceanic
01:10AM 26.1298 -68.1381 169° South 460 529 31,000  Level FlightAware Transoceanic
01:11AM 26.1416 -68.1472 169° South 465 535 31,000  Level FlightAware Transoceanic
01:12AM 26.0124 -68.1192 169° South 465 535 31,000  Level FlightAware Transoceanic
01:13AM 25.8832 -68.0912 169° South 465 535 31,000  Level FlightAware Transoceanic
01:14AM 25.7540 -68.0633 169° South 465 535 31,000  Level FlightAware Transoceanic
01:15AM 25.6248 -68.0355 169° South 465 535 31,000  Level FlightAware Transoceanic
01:16AM 25.4955 -68.0077 169° South 465 535 31,000  Level FlightAware Transoceanic
01:17AM 25.3663 -67.9800 169° South 465 535 31,000  Level FlightAware Transoceanic
01:17AM 25.4667 -68.0000 169° South 458 527 31,000  Level New York Oceanic (ODAPS)
01:18AM 25.2371 -67.9523 169° South 465 535 31,000  Level FlightAware Transoceanic
01:19AM 25.1078 -67.9247 169° South 465 535 31,000  Level FlightAware Transoceanic
01:19AM 25.2333 -67.9500 169° South 456 525 31,000  Level New York Oceanic (ODAPS)
01:20AM 24.9786 -67.8972 169° South 465 535 31,000  Level FlightAware Transoceanic
01:21AM 24.8494 -67.8697 169° South 465 535 31,000  Level FlightAware Transoceanic
01:22AM 24.7201 -67.8422 169° South 465 535 31,000  Level FlightAware Transoceanic
01:23AM 24.6705 -67.8306 169° South 458 527 31,000  Level FlightAware Transoceanic
01:24AM 24.5377 -67.8025 169° South 458 527 31,000  Level FlightAware Transoceanic
01:25AM 24.4586 -67.7858 169° South 456 525 31,000  Level FlightAware Transoceanic
01:26AM 24.3295 -67.7586 169° South 456 525 31,000  Level FlightAware Transoceanic
01:26AM 24.2667 -67.7500 169° South 466 536 31,000  Level New York Oceanic (ODAPS)
01:27AM 24.2004 -67.7315 169° South 456 525 31,000  Level FlightAware Transoceanic
01:28AM 24.0712 -67.7044 169° South 456 525 31,000  Level FlightAware Transoceanic
01:29AM 23.9421 -67.6774 169° South 456 525 31,000  Level FlightAware Transoceanic
01:30AM 23.8129 -67.6504 169° South 456 525 31,000  Level FlightAware Transoceanic
01:31AM 23.6838 -67.6235 169° South 456 525 31,000 1,080 Level FlightAware Transoceanic
01:31AM 23.6000 -67.7000 169° South 440 506 33,000 2,160 Climbing San Juan Center
01:31AM 23.6167 -67.6000 169° South 472 543 33,000 -13,380 Level New York Oceanic (ODAPS)
01:32AM 23.6043 -67.6105 169° South 466 536 31,000  Descending FlightAware Transoceanic
01:32AM 23.5833 -67.6000 169° South 473 544 33,000 2,340 Climbing New York Oceanic (ODAPS)
01:32AM 23.4667 -67.7167 169° South 450 518 33,000  Level San Juan Center
01:32AM 23.5167 -67.5833 169° South 477 549 33,000 -13,380 Level New York Oceanic (ODAPS)
01:33AM 23.4719 -67.5827 169° South 466 536 31,000  Descending FlightAware Transoceanic
01:33AM 23.3333 -67.7167 169° South 440 506 33,000  Climbing San Juan Center
01:34AM 23.3394 -67.5550 169° South 466 536 31,000  Descending FlightAware Transoceanic
01:34AM 23.2167 -67.6833 165° South 450 518 33,000  Climbing San Juan Center
01:35AM 23.2069 -67.5274 169° South 466 536 31,000  Descending FlightAware Transoceanic
01:35AM 23.0833 -67.6667 173° South 470 541 33,000  Climbing San Juan Center
01:36AM 23.0744 -67.4998 169° South 466 536 31,000  Descending FlightAware Transoceanic
01:36AM 22.9667 -67.5833 147° Southeast 480 552 33,000  Climbing San Juan Center
01:37AM 22.9419 -67.4723 169° South 466 536 31,000  Descending FlightAware Transoceanic
01:37AM 22.8333 -67.5167 155° Southeast 500 575 33,000 1,020 Climbing San Juan Center
01:38AM 22.7167 -67.4333 147° Southeast 500 575 33,000  Level San Juan Center
01:39AM 22.5833 -67.3833 161° South 490 564 33,000  Level San Juan Center
01:40AM 22.4667 -67.3667 172° South 480 552 33,000  Level San Juan Center
01:41AM 22.3333 -67.3333 167° South 480 552 33,000  Level San Juan Center
01:42AM 22.2000 -67.3167 173° South 480 552 33,000  Level San Juan Center
01:43AM 22.2333 -67.3167 170° South 482 555 33,000  Level New York Oceanic (ODAPS)
01:43AM 22.0667 -67.2833 170° South 480 552 33,000  Level San Juan Center
01:44AM 21.9333 -67.2500 167° South 480 552 33,000  Level San Juan Center
01:45AM 21.8000 -67.2333 173° South 480 552 33,000  Level San Juan Center
01:46AM 21.6667 -67.2000 167° South 480 552 33,000  Level San Juan Center
01:47AM 21.5333 -67.1833 173° South 480 552 33,000  Level San Juan Center
01:48AM 21.4167 -67.1500 165° South 490 564 33,000  Level San Juan Center
01:54AM 20.6660 -66.9200 165° South 496 571 33,000  Level FlightAware
01:55AM 20.5670 -66.8900 164° South 496 571 33,000  Level FlightAware
01:56AM 20.4640 -66.8590 164° South 498 573 33,000  Level FlightAware
01:56AM 20.3710 -66.8310 164° South 500 575 33,000  Level FlightAware
01:57AM 20.2840 -66.8050 164° South 503 579 33,000  Level FlightAware
01:58AM 20.1770 -66.7730 164° South 503 579 33,000  Level FlightAware
01:58AM 20.0890 -66.7470 164° South 503 579 33,000  Level FlightAware
01:59AM 19.9990 -66.7200 164° South 502 578 33,000  Level FlightAware
02:00AM 19.8990 -66.6900 164° South 502 578 33,000  Level FlightAware
02:00AM 19.8120 -66.6640 164° South 503 579 33,000  Level FlightAware
02:01AM 19.7080 -66.6330 164° South 503 579 33,000  Level FlightAware
02:02AM 19.6190 -66.6060 164° South 502 578 33,000  Level FlightAware
02:02AM 19.5290 -66.5800 165° South 500 575 33,000  Level FlightAware
02:03AM 19.4280 -66.5500 164° South 500 575 33,000  Level FlightAware
02:04AM 19.3400 -66.5230 164° South 502 578 33,000  Level FlightAware
02:05AM 19.2360 -66.4920 164° South 503 579 33,000  Level FlightAware
02:05AM 19.1450 -66.4650 164° South 503 579 33,000  Level FlightAware
02:06AM 19.0470 -66.4360 164° South 504 580 33,000  Level FlightAware
02:07AM 18.9570 -66.4100 165° South 502 578 33,000  Level FlightAware
02:07AM 18.8680 -66.3840 165° South 500 575 33,000  Level FlightAware
02:08AM 18.7650 -66.3530 164° South 500 575 33,000  Level FlightAware
02:09AM 18.6770 -66.3270 164° South 499 574 33,000  Level FlightAware
02:09AM 18.5860 -66.3000 164° South 499 574 33,000  Level FlightAware
02:10AM 18.4880 -66.2720 165° South 502 578 33,000  Level FlightAware
02:11AM 18.3980 -66.2450 164° South 504 580 33,000  Level FlightAware
02:12AM 18.2940 -66.2150 165° South 503 579 33,000  Level FlightAware
02:12AM 18.2050 -66.1890 164° South 503 579 33,000  Level FlightAware
02:13AM 18.1160 -66.1630 164° South 503 579 33,000  Level FlightAware
02:14AM 18.0160 -66.1330 164° South 503 579 33,000  Level FlightAware
02:14AM 17.9260 -66.1070 165° South 503 579 33,000  Level FlightAware
02:15AM 17.8220 -66.0770 165° South 503 579 33,000  Level FlightAware
02:16AM 17.7330 -66.0510 164° South 505 581 33,000  Level FlightAware
02:16AM 17.6430 -66.0250 165° South 506 582 33,000  Level FlightAware
02:17AM 17.5430 -65.9960 165° South 505 581 33,000  Level FlightAware
02:18AM 17.4340 -65.9640 164° South 505 581 33,000  Level FlightAware
02:19AM 17.3580 -65.9410 164° South 505 581 33,000  Level FlightAware
02:20AM 17.2630 -65.9120 164° South 505 581 33,000  Level FlightAware
02:20AM 17.1860 -65.8890 164° South 505 581 33,000  Level FlightAware
02:21AM 17.1100 -65.8660 164° South 505 581 33,000  Level FlightAware
02:22AM 17.0340 -65.8430 164° South 505 581 33,000  Level FlightAware
02:22AM 16.9570 -65.8200 164° South 505 581 33,000  Level FlightAware
02:23AM 16.8620 -65.7920 164° South 505 581 33,000  Level FlightAware
02:24AM 16.7850 -65.7690 164° South 505 581 33,000  Level FlightAware
02:24AM 16.7090 -65.7460 164° South 505 581 33,000  Level FlightAware
02:25AM 16.6330 -65.7230 164° South 505 581 33,000  Level FlightAware
02:26AM 16.5560 -65.7000 164° South 505 581 33,000  Level FlightAware
02:27AM 16.4610 -65.6720 164° South 505 581 33,000  Level FlightAware
02:27AM 16.3850 -65.6490 164° South 505 581 33,000  Level FlightAware
02:28AM 16.1500 -65.5833 164° South 510 587 33,000  Level San Juan Center
02:29AM 16.0167 -65.5333 160° South 500 575 33,000  Level San Juan Center
02:32AM 15.7777 -65.4975 172° South  Level FlightAware Approximate
02:39AM 14.9151 -65.2189 160° South  Level FlightAware Approximate
02:40AM 14.7938 -65.1725 160° South  Level FlightAware Approximate
02:40AM 14.5350 -65.1250 160° South 505 581 33,000  Level FlightAware
02:40AM 14.4590 -65.1000 162° South 505 581 33,000  Level FlightAware
02:41AM 14.3440 -65.0620 162° South 503 579 33,000  Level FlightAware
02:43AM 14.0310 -64.9590 162° South 503 579 33,000  Level FlightAware
02:44AM 13.9310 -64.9320 165° South 502 578 33,000  Level FlightAware
02:45AM 13.7990 -64.8940 164° South 506 582 33,000  Level FlightAware
02:46AM 13.7090 -64.8640 162° South 507 583 33,000  Level FlightAware
02:46AM 13.6050 -64.8300 162° South 506 582 33,000  Level FlightAware
02:47AM 13.5330 -64.8080 163° South 506 582 33,000  Level FlightAware
02:48AM 13.3880 -64.7620 163° South 501 577 33,000  Level FlightAware
02:49AM 13.3150 -64.7380 162° South 500 575 33,000  Level FlightAware
02:49AM 13.2030 -64.7030 163° South 496 571 33,000  Level FlightAware
02:50AM 13.0960 -64.6690 163° South 496 571 33,000  Level FlightAware
02:51AM 13.0000 -64.6390 163° South 499 574 33,000  Level FlightAware
02:52AM 12.8760 -64.5980 162° South 500 575 33,000  Level FlightAware
02:53AM 12.7690 -64.5630 162° South 504 580 33,000  Level FlightAware
02:53AM 12.6940 -64.5380 162° South 504 580 33,000  Level FlightAware
02:54AM 12.5930 -64.5050 162° South 501 577 33,000  Level FlightAware
02:55AM 12.4920 -64.4720 162° South 502 578 33,000  Level FlightAware
02:55AM 12.4030 -64.4430 162° South 502 578 33,000  Level FlightAware
02:56AM 12.3280 -64.4180 162° South 502 578 33,000  Level FlightAware
02:57AM 12.2530 -64.3930 162° South 502 578 33,000  Level FlightAware
02:57AM 12.4920 -64.4720 342° North 33,000  Level FlightAware
02:58AM 12.1740 -64.3700 163° South 501 577 33,000  Level FlightAware
02:59AM 12.1010 -64.3460 162° South 501 577 33,000  Level FlightAware
03:00AM 12.0160 -64.3180 162° South 501 577 33,000  Level FlightAware
03:00AM 11.9410 -64.2930 162° South 501 577 33,000  Level FlightAware
03:01AM 11.6390 -64.2010 163° South 500 575 33,000  Level FlightAware
03:02AM 11.5640 -64.1760 162° South 500 575 33,000  Level FlightAware
03:03AM 11.4900 -64.1510 162° South 500 575 33,000  Level FlightAware
03:03AM 11.4150 -64.1260 162° South 500 575 33,000  Level FlightAware
03:04AM 11.3210 -64.0950 162° South 500 575 33,000  Level FlightAware
03:05AM 11.2460 -64.0700 162° South 500 575 33,000  Level FlightAware
03:05AM 11.1720 -64.0460 162° South 500 575 33,000  Level FlightAware
03:06AM 11.0970 -64.0210 162° South 500 575 33,000  Level FlightAware
03:07AM 11.0220 -63.9960 162° South 500 575 33,000  Level FlightAware
03:08AM 10.9290 -63.9650 162° South 500 575 33,000  Level FlightAware
03:08AM 10.8540 -63.9400 162° South 500 575 33,000  Level FlightAware
03:09AM 10.7790 -63.9160 163° South 500 575 33,000  Level FlightAware
03:10AM 10.7040 -63.8910 162° South 500 575 33,000  Level FlightAware
03:10AM 10.6290 -63.8660 162° South 500 575 33,000  Level FlightAware
03:13AM 10.3722 -63.7364 154° Southeast  Level Estimated
03:14AM 10.2563 -63.6779 154° Southeast  Level Estimated
03:15AM 10.1404 -63.6195 154° Southeast  Level Estimated
03:16AM 10.0246 -63.5612 154° Southeast  Level Estimated
03:17AM 9.9087 -63.5029 154° Southeast  Level Estimated
03:18AM 9.7927 -63.4447 154° Southeast  Level Estimated
03:19AM 9.6770 -63.3866 154° Southeast  Level Estimated
03:20AM 9.5613 -63.3285 154° Southeast  Level Estimated
03:21AM 9.4456 -63.2705 154° Southeast  Level Estimated
03:22AM 9.3298 -63.2125 154° Southeast  Level Estimated
03:23AM 9.2141 -63.1545 154° Southeast  Level Estimated
03:24AM 9.0983 -63.0966 154° Southeast  Level Estimated
03:25AM 8.9826 -63.0388 154° Southeast  Level Estimated
03:26AM 8.8668 -62.9809 154° Southeast  Level Estimated
03:27AM 8.7510 -62.9231 154° Southeast  Level Estimated
03:28AM 8.6352 -62.8654 154° Southeast  Level Estimated
03:29AM 8.5194 -62.8077 154° Southeast  Level Estimated
03:30AM 8.4038 -62.7501 154° Southeast  Level Estimated
03:31AM 8.2882 -62.6925 154° Southeast  Level Estimated
03:32AM 8.1726 -62.6350 154° Southeast  Level Estimated
03:33AM 8.0570 -62.5775 154° Southeast  Level Estimated
03:34AM 7.9414 -62.5201 154° Southeast  Level Estimated
03:35AM 7.8258 -62.4626 154° Southeast  Level Estimated
03:36AM 7.7101 -62.4053 154° Southeast  Level Estimated
03:37AM 7.5945 -62.3479 154° Southeast  Level Estimated
03:38AM 7.4788 -62.2906 154° Southeast  Level Estimated
03:39AM 7.3632 -62.2333 154° Southeast  Level Estimated
03:40AM 7.2475 -62.1760 154° Southeast  Level Estimated
03:41AM 7.1318 -62.1188 154° Southeast  Level Estimated
03:42AM 7.0161 -62.0616 154° Southeast  Level Estimated
03:43AM 6.9004 -62.0044 154° Southeast  Level Estimated
03:44AM 6.7847 -61.9472 154° Southeast  Level Estimated
03:45AM 6.6690 -61.8901 154° Southeast  Level Estimated
03:46AM 6.5533 -61.8330 154° Southeast  Level Estimated
03:47AM 6.4376 -61.7760 154° Southeast  Level Estimated
03:48AM 6.3218 -61.7189 154° Southeast  Level Estimated
03:49AM 6.2061 -61.6619 154° Southeast  Level Estimated
03:50AM 6.0904 -61.6049 154° Southeast  Level Estimated
03:51AM 5.9746 -61.5479 154° Southeast  Level Estimated
03:52AM 5.8589 -61.4910 154° Southeast  Level Estimated
03:53AM 5.7431 -61.4341 154° Southeast  Level Estimated
03:54AM 5.6274 -61.3772 154° Southeast  Level Estimated
03:55AM 5.5116 -61.3203 154° Southeast  Level Estimated
03:56AM 5.3958 -61.2635 154° Southeast  Level Estimated
03:57AM 5.2800 -61.2066 154° Southeast  Level Estimated
03:58AM 5.1643 -61.1498 154° Southeast  Level Estimated
03:59AM 5.0485 -61.0930 154° Southeast  Level Estimated
04:00AM 4.9327 -61.0363 154° Southeast  Level Estimated
04:01AM 4.8169 -60.9795 154° Southeast  Level Estimated
04:02AM 4.7011 -60.9228 154° Southeast  Level Estimated
04:03AM 4.5853 -60.8661 154° Southeast  Level Estimated
04:04AM 4.4703 -60.8098 154° Southeast  Level Estimated
04:05AM 4.3554 -60.7535 154° Southeast  Level Estimated
04:06AM 4.2404 -60.6973 154° Southeast  Level Estimated
04:07AM 4.1254 -60.6410 154° Southeast  Level Estimated
04:08AM 4.0104 -60.5848 154° Southeast  Level Estimated
04:09AM 3.8954 -60.5286 154° Southeast  Level Estimated
04:10AM 3.7805 -60.4725 154° Southeast  Level Estimated
04:11AM 3.6655 -60.4163 154° Southeast  Level Estimated
04:12AM 3.5505 -60.3602 154° Southeast  Level Estimated
04:13AM 3.4355 -60.3040 154° Southeast  Level Estimated
04:14AM 3.3205 -60.2479 154° Southeast  Level Estimated
04:15AM 3.2055 -60.1918 154° Southeast  Level Estimated
04:16AM 3.0905 -60.1357 154° Southeast  Level Estimated
04:17AM 2.9755 -60.0796 154° Southeast  Level Estimated
04:18AM 2.8604 -60.0235 154° Southeast  Level Estimated
04:19AM 2.7454 -59.9675 154° Southeast  Level Estimated
04:20AM 2.6304 -59.9114 154° Southeast  Level Estimated
04:21AM 2.5154 -59.8554 154° Southeast  Level Estimated
04:22AM 2.4004 -59.7994 154° Southeast  Level Estimated
04:23AM 2.2853 -59.7434 154° Southeast  Level Estimated
04:24AM 2.1703 -59.6873 154° Southeast  Level Estimated
04:25AM 2.0553 -59.6313 154° Southeast  Level Estimated
04:26AM 1.9402 -59.5754 154° Southeast  Level Estimated
04:27AM 1.8252 -59.5194 154° Southeast  Level Estimated
04:28AM 1.7102 -59.4634 154° Southeast  Level Estimated
04:29AM 1.5951 -59.4074 154° Southeast  Level Estimated
04:30AM 1.4801 -59.3514 154° Southeast  Level Estimated
04:31AM 1.3650 -59.2955 154° Southeast  Level Estimated
04:32AM 1.2500 -59.2395 154° Southeast  Level Estimated
04:33AM 1.1350 -59.1836 154° Southeast  Level Estimated
04:34AM 1.0199 -59.1276 154° Southeast  Level Estimated
04:35AM 0.9049 -59.0717 154° Southeast  Level Estimated
04:36AM 0.7898 -59.0157 154° Southeast  Level Estimated
04:37AM 0.6748 -58.9598 154° Southeast  Level Estimated
04:38AM 0.5597 -58.9039 154° Southeast  Level Estimated
04:39AM 0.4447 -58.8479 154° Southeast  Level Estimated
04:40AM 0.3296 -58.7920 154° Southeast  Level Estimated
04:41AM 0.2146 -58.7361 154° Southeast  Level Estimated
04:42AM 0.0995 -58.6801 154° Southeast  Level Estimated
04:43AM -0.0155 -58.6242 154° Southeast  Level Estimated
04:44AM -0.1306 -58.5683 154° Southeast  Level Estimated
04:45AM -0.2456 -58.5124 154° Southeast  Level Estimated
04:46AM -0.3607 -58.4564 154° Southeast  Level Estimated
04:47AM -0.4757 -58.4005 154° Southeast  Level Estimated
04:48AM -0.5908 -58.3446 154° Southeast  Level Estimated
04:49AM -0.7058 -58.2886 154° Southeast  Level Estimated
04:50AM -0.8209 -58.2327 154° Southeast  Level Estimated
04:51AM -0.9359 -58.1768 154° Southeast  Level Estimated
04:52AM -1.0510 -58.1208 154° Southeast  Level Estimated
04:53AM -1.1660 -58.0649 154° Southeast  Level Estimated
04:54AM -1.2810 -58.0089 154° Southeast  Level Estimated
04:55AM -1.3961 -57.9530 154° Southeast  Level Estimated
04:56AM -1.5111 -57.8970 154° Southeast  Level Estimated
04:57AM -1.6262 -57.8410 154° Southeast  Level Estimated
04:58AM -1.7412 -57.7851 154° Southeast  Level Estimated
04:59AM -1.8562 -57.7291 154° Southeast  Level Estimated
05:00AM -1.9713 -57.6731 154° Southeast  Level Estimated
05:01AM -2.0863 -57.6171 154° Southeast  Level Estimated
05:02AM -2.2013 -57.5611 154° Southeast  Level Estimated
05:03AM -2.3163 -57.5051 154° Southeast  Level Estimated
05:04AM -2.4314 -57.4491 154° Southeast  Level Estimated
05:05AM -2.5464 -57.3930 154° Southeast  Level Estimated
05:06AM -2.6614 -57.3370 154° Southeast  Level Estimated
05:07AM -2.7764 -57.2809 154° Southeast  Level Estimated
05:08AM -2.8915 -57.2249 154° Southeast  Level Estimated
05:09AM -3.0065 -57.1688 154° Southeast  Level Estimated
05:10AM -3.1215 -57.1127 154° Southeast  Level Estimated
05:11AM -3.2365 -57.0566 154° Southeast  Level Estimated
05:12AM -3.3515 -57.0005 154° Southeast  Level Estimated
05:13AM -3.4665 -56.9444 154° Southeast  Level Estimated
05:14AM -3.5815 -56.8882 154° Southeast  Level Estimated
05:15AM -3.6965 -56.8321 154° Southeast  Level Estimated
05:16AM -3.8115 -56.7759 154° Southeast  Level Estimated
05:17AM -3.9265 -56.7197 154° Southeast  Level Estimated
05:18AM -4.0414 -56.6636 154° Southeast  Level Estimated
05:19AM -4.1564 -56.6073 154° Southeast  Level Estimated
05:20AM -4.2714 -56.5511 154° Southeast  Level Estimated
05:21AM -4.3864 -56.4949 154° Southeast  Level Estimated
05:22AM -4.5013 -56.4386 154° Southeast  Level Estimated
05:23AM -4.6163 -56.3823 154° Southeast  Level Estimated
05:24AM -4.7312 -56.3260 154° Southeast  Level Estimated
05:25AM -4.8462 -56.2697 154° Southeast  Level Estimated
05:26AM -4.9612 -56.2134 154° Southeast  Level Estimated
05:27AM -5.0759 -56.1571 154° Southeast  Level Estimated
05:28AM -5.1906 -56.1008 154° Southeast  Level Estimated
05:29AM -5.3053 -56.0446 154° Southeast  Level Estimated
05:30AM -5.4201 -55.9882 154° Southeast  Level Estimated
05:31AM -5.5348 -55.9319 154° Southeast  Level Estimated
05:32AM -5.6495 -55.8755 154° Southeast  Level Estimated
05:33AM -5.7642 -55.8191 154° Southeast  Level Estimated
05:34AM -5.8789 -55.7627 154° Southeast  Level Estimated
05:35AM -5.9936 -55.7063 154° Southeast  Level Estimated
05:36AM -6.1083 -55.6499 154° Southeast  Level Estimated
05:37AM -6.2229 -55.5934 154° Southeast  Level Estimated
05:38AM -6.3376 -55.5369 154° Southeast  Level Estimated
05:39AM -6.4523 -55.4804 154° Southeast  Level Estimated
05:40AM -6.5669 -55.4238 154° Southeast  Level Estimated
05:41AM -6.6816 -55.3672 154° Southeast  Level Estimated
05:42AM -6.7962 -55.3106 154° Southeast  Level Estimated
05:43AM -6.9109 -55.2540 154° Southeast  Level Estimated
05:44AM -7.0255 -55.1973 154° Southeast  Level Estimated
05:45AM -7.1401 -55.1407 154° Southeast  Level Estimated
05:46AM -7.2548 -55.0839 154° Southeast  Level Estimated
05:47AM -7.3694 -55.0272 154° Southeast  Level Estimated
05:48AM -7.4840 -54.9704 154° Southeast  Level Estimated
05:49AM -7.5986 -54.9136 154° Southeast  Level Estimated
05:50AM -7.7132 -54.8568 154° Southeast  Level Estimated
05:51AM -7.8278 -54.7999 154° Southeast  Level Estimated
05:52AM -7.9423 -54.7430 154° Southeast  Level Estimated
05:53AM -8.0569 -54.6861 154° Southeast  Level Estimated
05:54AM -8.1715 -54.6292 154° Southeast  Level Estimated
05:55AM -8.2860 -54.5722 154° Southeast  Level Estimated
05:56AM -8.4006 -54.5151 154° Southeast  Level Estimated
05:57AM -8.5151 -54.4581 154° Southeast  Level Estimated
05:58AM -8.6296 -54.4010 154° Southeast  Level Estimated
05:59AM -8.7442 -54.3439 154° Southeast  Level Estimated
06:00AM -8.8587 -54.2867 154° Southeast  Level Estimated
06:01AM -8.9732 -54.2295 154° Southeast  Level Estimated
06:02AM -9.0877 -54.1723 154° Southeast  Level Estimated
06:03AM -9.2022 -54.1150 154° Southeast  Level Estimated
06:04AM -9.3166 -54.0577 154° Southeast  Level Estimated
06:05AM -9.4311 -54.0004 154° Southeast  Level Estimated
06:06AM -9.5456 -53.9430 154° Southeast  Level Estimated
06:07AM -9.6600 -53.8856 154° Southeast  Level Estimated
06:08AM -9.7745 -53.8281 154° Southeast  Level Estimated
06:09AM -9.8889 -53.7706 154° Southeast  Level Estimated
06:10AM -10.0031 -53.7132 154° Southeast  Level Estimated
06:11AM -10.1173 -53.6557 154° Southeast  Level Estimated
06:12AM -10.2315 -53.5981 154° Southeast  Level Estimated
06:13AM -10.3457 -53.5406 154° Southeast  Level Estimated
06:14AM -10.4598 -53.4830 154° Southeast  Level Estimated
06:15AM -10.5740 -53.4254 154° Southeast  Level Estimated
06:16AM -10.6881 -53.3677 154° Southeast  Level Estimated
06:17AM -10.8023 -53.3099 154° Southeast  Level Estimated
06:18AM -10.9164 -53.2522 154° Southeast  Level Estimated
06:19AM -11.0305 -53.1943 154° Southeast  Level Estimated
06:20AM -11.1446 -53.1365 154° Southeast  Level Estimated
06:21AM -11.2587 -53.0786 154° Southeast  Level Estimated
06:22AM -11.3728 -53.0206 154° Southeast  Level Estimated
06:23AM -11.4869 -52.9626 154° Southeast  Level Estimated
06:24AM -11.6010 -52.9046 154° Southeast  Level Estimated
06:25AM -11.7150 -52.8465 153° Southeast  Level Estimated
06:26AM -11.8290 -52.7883 153° Southeast  Level Estimated
06:27AM -11.9431 -52.7301 153° Southeast  Level Estimated
06:28AM -12.0571 -52.6719 153° Southeast  Level Estimated
06:29AM -12.1711 -52.6136 153° Southeast  Level Estimated
06:30AM -12.2851 -52.5553 153° Southeast  Level Estimated
06:31AM -12.3991 -52.4969 153° Southeast  Level Estimated
06:32AM -12.5130 -52.4384 153° Southeast  Level Estimated
06:33AM -12.6270 -52.3800 153° Southeast  Level Estimated
06:34AM -12.7409 -52.3214 153° Southeast  Level Estimated
06:35AM -12.8548 -52.2628 153° Southeast  Level Estimated
06:36AM -12.9688 -52.2042 153° Southeast  Level Estimated
06:37AM -13.0827 -52.1455 153° Southeast  Level Estimated
06:38AM -13.1966 -52.0867 153° Southeast  Level Estimated
06:39AM -13.3104 -52.0279 153° Southeast  Level Estimated
06:40AM -13.4243 -51.9690 153° Southeast  Level Estimated
06:41AM -13.5381 -51.9101 153° Southeast  Level Estimated
06:42AM -13.6520 -51.8511 153° Southeast  Level Estimated
06:43AM -13.7658 -51.7921 153° Southeast  Level Estimated
06:44AM -13.8796 -51.7330 153° Southeast  Level Estimated
06:45AM -13.9934 -51.6738 153° Southeast  Level Estimated
06:46AM -14.1072 -51.6146 153° Southeast  Level Estimated
06:47AM -14.2209 -51.5554 153° Southeast  Level Estimated
06:48AM -14.3347 -51.4960 153° Southeast  Level Estimated
06:49AM -14.4484 -51.4366 153° Southeast  Level Estimated
06:50AM -14.5621 -51.3772 153° Southeast  Level Estimated
06:51AM -14.6758 -51.3177 153° Southeast  Level Estimated
06:52AM -14.7895 -51.2581 153° Southeast  Level Estimated
06:53AM -14.9032 -51.1985 153° Southeast  Level Estimated
06:54AM -15.0168 -51.1388 153° Southeast  Level Estimated
06:55AM -15.1305 -51.0790 153° Southeast  Level Estimated
06:56AM -15.2441 -51.0192 153° Southeast  Level Estimated
06:57AM -15.3577 -50.9593 153° Southeast  Level Estimated
06:58AM -15.4713 -50.8993 153° Southeast  Level Estimated
06:59AM -15.5849 -50.8393 153° Southeast  Level Estimated
07:00AM -15.6985 -50.7792 153° Southeast  Level Estimated
07:01AM -15.8120 -50.7191 153° Southeast  Level Estimated
07:02AM -15.9255 -50.6588 153° Southeast  Level Estimated
07:03AM -16.0390 -50.5985 153° Southeast  Level Estimated
07:04AM -16.1525 -50.5382 153° Southeast  Level Estimated
07:05AM -16.2660 -50.4778 153° Southeast  Level Estimated
07:06AM -16.3795 -50.4173 153° Southeast  Level Estimated
07:07AM -16.4929 -50.3567 153° Southeast  Level Estimated
07:08AM -16.6063 -50.2961 153° Southeast  Level Estimated
07:09AM -16.7198 -50.2353 153° Southeast  Level Estimated
07:10AM -16.8332 -50.1745 153° Southeast  Level Estimated
07:10AM -19.1490 -49.4140 153° Southeast 533 613 35,000  Level FlightAware
07:11AM -16.9465 -50.1137 153° Southeast  Level Estimated
07:11AM -19.2780 -49.3440 153° Southeast 534 615 35,000  Level FlightAware
07:11AM -19.3570 -49.3000 152° Southeast 534 615 35,000  Level FlightAware
07:12AM -19.4580 -49.2440 152° Southeast 533 613 35,000  Level FlightAware
07:13AM -19.5550 -49.1900 152° Southeast 534 615 35,000  Level FlightAware
07:13AM -19.6420 -49.1420 153° Southeast 533 613 35,000  Level FlightAware
07:14AM -19.7290 -49.0940 153° Southeast 532 612 35,000  Level FlightAware
07:15AM -19.8000 -49.0540 152° Southeast 530 610 35,000  Level FlightAware
07:16AM -19.9200 -48.9880 153° Southeast 527 606 35,000  Level FlightAware
07:16AM -20.0110 -48.9370 152° Southeast 526 605 35,000  Level FlightAware
07:17AM -20.0980 -48.8880 152° Southeast 524 603 35,000  Level FlightAware
07:18AM -20.1960 -48.8340 153° Southeast 523 602 35,000  Level FlightAware
07:18AM -20.2810 -48.7860 152° Southeast 522 601 35,000  Level FlightAware
07:19AM -20.3670 -48.7380 152° Southeast 523 602 35,000  Level FlightAware
07:20AM -20.4610 -48.6890 154° Southeast 522 601 35,000  Level FlightAware
07:21AM -20.5610 -48.6360 154° Southeast 521 600 35,000  Level FlightAware
07:21AM -20.6490 -48.5890 153° Southeast 519 597 35,000  Level FlightAware
07:22AM -20.7280 -48.5470 154° Southeast 517 595 35,000  Level FlightAware
07:22AM -20.8080 -48.5040 153° Southeast 516 594 35,000  Level FlightAware
07:23AM -20.8870 -48.4620 154° Southeast 516 594 35,000  Level FlightAware
07:24AM -20.9800 -48.4120 153° Southeast 517 595 35,000  Level FlightAware
07:24AM -21.0650 -48.3650 153° Southeast 518 596 35,000  Level FlightAware
07:25AM -21.1420 -48.3030 143° Southeast 521 600 35,000  Level FlightAware
07:26AM -21.2240 -48.2260 139° Southeast 521 600 35,000  Level FlightAware
07:27AM -21.3000 -48.1600 141° Southeast 518 596 35,000 -300 Level FlightAware
07:27AM -21.3750 -48.0970 142° Southeast 503 579 34,600 -900 Descending FlightAware
07:28AM -21.4540 -48.0330 143° Southeast 488 562 33,800 -1,140 Descending FlightAware
07:29AM -21.5260 -47.9740 143° Southeast 478 550 33,000 -1,200 Descending FlightAware
07:29AM -21.6060 -47.9080 143° Southeast 466 536 32,100 -1,320 Descending FlightAware
07:30AM -21.6740 -47.8520 143° Southeast 457 526 31,200 -1,200 Descending FlightAware
07:31AM -21.7470 -47.7920 143° Southeast 448 516 30,400 -1,200 Descending FlightAware
07:31AM -21.8130 -47.7370 142° Southeast 443 510 29,500 -1,380 Descending FlightAware
07:32AM -21.8780 -47.6830 142° Southeast 439 505 28,600 -1,320 Descending FlightAware
07:33AM -21.9500 -47.6230 142° Southeast 434 499 27,700 -1,200 Descending FlightAware
07:34AM -22.0110 -47.5720 142° Southeast 429 494 26,900 -1,080 Descending FlightAware
07:34AM -22.0820 -47.5130 142° Southeast 418 481 26,200 -1,020 Descending FlightAware
07:35AM -22.1420 -47.4630 142° Southeast 411 473 25,500 -1,020 Descending FlightAware
07:36AM -22.2010 -47.4130 142° Southeast 404 465 24,900 -960 Descending FlightAware
07:36AM -22.2470 -47.3750 143° Southeast 401 461 24,300 -1,080 Descending FlightAware
07:37AM -22.3220 -47.3120 142° Southeast 393 452 23,400 -1,020 Descending FlightAware
07:38AM -22.3880 -47.2570 142° Southeast 389 448 22,700 -900 Descending FlightAware
07:38AM -22.4450 -47.2090 142° Southeast 388 447 22,200 -1,020 Descending FlightAware
07:39AM -22.5010 -47.1610 142° Southeast 373 429 21,400 -1,440 Descending FlightAware
07:40AM -22.5640 -47.1100 143° Southeast 373 429 20,200 -1,560 Descending FlightAware
07:41AM -22.6250 -47.0770 153° Southeast 367 422 19,200 -1,560 Descending FlightAware
07:41AM -22.6940 -47.0480 159° South 362 417 18,000 -1,560 Descending FlightAware
07:42AM -22.7560 -47.0230 160° South 350 403 17,000 -1,620 Descending FlightAware
07:43AM -22.8200 -46.9960 159° South 344 396 15,900 -1,560 Descending FlightAware
07:43AM -22.8860 -46.9680 159° South 346 398 14,800 -1,680 Descending FlightAware
07:44AM -22.9470 -46.9420 159° South 327 376 13,600 -1,860 Descending FlightAware
07:45AM -23.0090 -46.9160 159° South 312 359 12,200 -1,560 Descending FlightAware
07:45AM -23.0600 -46.8950 159° South 278 320 11,400 -1,200 Descending FlightAware
07:46AM -23.1090 -46.8740 158° South 278 320 10,600 -1,200 Descending FlightAware
07:47AM -23.1450 -46.8590 159° South 275 316 10,000 -1,200 Descending FlightAware
07:47AM -23.1800 -46.8440 158° South 263 303 9,400 -1,200 Descending FlightAware
07:47AM -23.1920 -46.8390 159° South 262 302 9,200 -1,200 Descending FlightAware
07:48AM -23.2270 -46.8250 160° South 258 297 8,600 -1,080 Descending FlightAware
07:48AM -23.2420 -46.8180 157° South 245 282 8,400 -900 Descending FlightAware
07:48AM -23.2690 -46.8060 158° South 230 265 8,000 -660 Descending FlightAware
07:49AM -23.2990 -46.7940 160° South 209 241 7,800 -420 Descending FlightAware
07:49AM -23.3260 -46.7830 159° South 212 244 7,600 -480 Descending FlightAware
07:50AM -23.3350 -46.7790 158° South 211 243 7,500 -480 Descending FlightAware
07:50AM -23.3630 -46.7670 159° South 211 243 7,300 -600 Descending FlightAware
07:51AM -23.3870 -46.7490 145° Southeast 213 245 6,900 -1,140 Descending FlightAware
07:51AM -23.4060 -46.7320 141° Southeast 202 232 6,300 -1,320 Descending FlightAware
07:52AM -23.4270 -46.7120 139° Southeast 210 242 5,700 -1,200 Descending FlightAware
07:52AM -23.4450 -46.6940 137° Southeast 199 229 5,200 -900 Descending FlightAware
07:52AM -23.4520 -46.6810 120° Southeast 191 220 5,100 -600 Descending FlightAware
07:52AM -23.4580 -46.6680 117° Southeast 187 215 4,900 -720 Descending FlightAware
07:53AM -23.4690 -46.6440 117° Southeast 174 200 4,600 -600 Descending FlightAware
07:53AM -23.4750 -46.6230 107° East 169 194 4,400 -360 Descending FlightAware
07:54AM -23.4700 -46.6030 75° East 169 194 4,300 -480 Descending FlightAware
07:54AM -23.4670 -46.5910 75° East 171 197 4,100 -960 Descending FlightAware
07:55AM -23.4600 -46.5670 72° East 160 184 3,600 -960 Descending FlightAware
07:55AM -23.4570 -46.5540 76° East 155 178 3,400 -900 Descending FlightAware
07:55AM -23.4520 -46.5350 74° East 153 176 3,000 -900 Descending FlightAware
07:56AM -23.4460 -46.5130 73° East 153 176 2,600 -840 Descending FlightAware
07:56AM -23.4430 -46.5020 73° East 152 175 2,400 -840 Descending FlightAware